createdAt,value
2022-09-18T00:01:33.794Z,8.78
2022-09-18T00:04:03.697Z,8.77
2022-09-18T00:06:34.585Z,8.78
2022-09-18T00:09:03.692Z,8.78
2022-09-18T00:11:37.474Z,8.81
2022-09-18T00:14:07.134Z,8.79
2022-09-18T00:16:34.876Z,8.85
2022-09-18T00:19:02.653Z,8.89
2022-09-18T00:21:32.054Z,8.89
2022-09-18T00:24:01.239Z,8.92
2022-09-18T00:26:29.219Z,8.94
2022-09-18T00:28:58.519Z,8.98
2022-09-18T00:31:30.114Z,9.00
2022-09-18T00:34:03.381Z,8.99
2022-09-18T00:36:30.795Z,9.01
2022-09-18T00:38:59.582Z,9.06
2022-09-18T00:41:33.505Z,9.05
2022-09-18T00:44:32.153Z,9.09
2022-09-18T00:47:12.294Z,9.10
2022-09-18T00:50:17.358Z,9.13
2022-09-18T00:52:52.595Z,9.09
2022-09-18T00:55:24.299Z,9.11
2022-09-18T00:57:55.235Z,9.13
2022-09-18T01:00:23.323Z,9.15
2022-09-18T01:02:51.095Z,9.16
2022-09-18T01:05:49.312Z,9.19
2022-09-18T01:08:47.785Z,9.18
2022-09-18T01:11:46.785Z,9.21
2022-09-18T01:14:39.033Z,9.25
2022-09-18T01:17:31.241Z,9.28
2022-09-18T01:20:18.048Z,9.25
2022-09-18T01:23:04.397Z,9.24
2022-09-18T01:26:09.503Z,9.27
2022-09-18T01:28:41.164Z,9.28
2022-09-18T01:31:39.009Z,9.32
2022-09-18T01:34:19.704Z,9.31
2022-09-18T01:36:52.302Z,9.34
2022-09-18T01:39:31.957Z,9.34
2022-09-18T01:42:00.438Z,9.35
2022-09-18T01:44:31.432Z,9.34
2022-09-18T01:47:04.083Z,9.31
2022-09-18T01:49:40.377Z,9.33
2022-09-18T01:52:12.979Z,9.31
2022-09-18T01:54:46.194Z,9.34
2022-09-18T01:57:24.509Z,9.28
2022-09-18T01:59:56.738Z,9.25
2022-09-18T02:02:33.210Z,9.33
2022-09-18T02:05:04.195Z,9.33
2022-09-18T02:07:39.859Z,9.34
2022-09-18T02:10:08.542Z,9.28
2022-09-18T02:12:39.408Z,9.32
2022-09-18T02:15:10.899Z,9.29
2022-09-18T02:17:46.843Z,9.30
2022-09-18T02:20:21.885Z,9.27
2022-09-18T02:22:52.063Z,9.25
2022-09-18T02:25:25.720Z,9.22
2022-09-18T02:27:55.170Z,9.21
2022-09-18T02:30:23.082Z,9.19
2022-09-18T02:32:55.071Z,9.24
2022-09-18T02:35:27.722Z,9.28
2022-09-18T02:38:01.144Z,9.33
2022-09-18T02:41:08.242Z,9.28
2022-09-18T02:43:56.007Z,9.29
2022-09-18T02:46:46.951Z,9.28
2022-09-18T02:49:38.433Z,9.28
2022-09-18T02:52:50.291Z,9.29
2022-09-18T02:55:19.536Z,9.27
2022-09-18T02:57:52.456Z,9.25
2022-09-18T03:00:20.980Z,9.23
2022-09-18T03:02:52.508Z,9.25
2022-09-18T03:05:31.610Z,9.17
2022-09-18T03:08:01.089Z,9.21
2022-09-18T03:10:29.955Z,9.22
2022-09-18T03:12:57.680Z,9.18
2022-09-18T03:15:25.429Z,9.19
2022-09-18T03:17:52.810Z,9.18
2022-09-18T03:20:20.705Z,9.18
2022-09-18T03:22:49.857Z,9.16
2022-09-18T03:25:18.128Z,9.15
2022-09-18T03:27:45.428Z,9.15
2022-09-18T03:30:18.552Z,9.11
2022-09-18T03:32:46.248Z,9.03
2022-09-18T03:35:13.689Z,9.07
2022-09-18T03:37:42.063Z,9.07
2022-09-18T03:40:12.391Z,9.06
2022-09-18T03:42:43.602Z,9.10
2022-09-18T03:45:12.321Z,9.11
2022-09-18T03:47:39.889Z,9.07
2022-09-18T03:50:09.071Z,9.12
2022-09-18T03:52:38.819Z,9.14
2022-09-18T03:55:27.993Z,9.16
2022-09-18T03:58:14.494Z,9.14
2022-09-18T04:01:01.923Z,9.24
2022-09-18T04:03:39.204Z,9.26
2022-09-18T04:06:25.722Z,9.39
2022-09-18T04:09:26.011Z,9.45
2022-09-18T04:11:55.051Z,9.46
2022-09-18T04:14:27.956Z,9.52
2022-09-18T04:16:58.119Z,9.47
2022-09-18T04:19:25.579Z,9.58
2022-09-18T04:21:53.099Z,9.63
2022-09-18T04:24:22.590Z,9.61
2022-09-18T04:26:50.244Z,9.58
2022-09-18T04:29:20.659Z,9.68
2022-09-18T04:35:17.607Z,9.66
2022-09-18T04:37:45.730Z,9.63
2022-09-18T04:40:14.039Z,9.66
2022-09-18T04:42:42.088Z,9.72
2022-09-18T04:45:11.048Z,9.68
2022-09-18T04:47:41.151Z,9.72
2022-09-18T04:50:11.256Z,9.74
2022-09-18T04:52:59.064Z,9.72
2022-09-18T04:55:28.310Z,9.72
2022-09-18T04:57:56.374Z,9.75
2022-09-18T05:00:24.792Z,9.72
2022-09-18T05:02:52.822Z,9.74
2022-09-18T05:05:24.978Z,9.75
2022-09-18T05:07:53.005Z,9.78
2022-09-18T05:10:22.532Z,9.77
2022-09-18T05:12:52.158Z,9.81
2022-09-18T05:15:21.645Z,9.90
2022-09-18T05:18:00.084Z,9.83
2022-09-18T05:20:28.719Z,9.79
2022-09-18T05:23:03.309Z,9.79
2022-09-18T05:25:31.618Z,9.84
2022-09-18T05:28:01.081Z,9.85
2022-09-18T05:30:34.129Z,9.87
2022-09-18T05:33:04.736Z,9.83
2022-09-18T05:35:34.373Z,9.88
2022-09-18T05:38:02.671Z,9.89
2022-09-18T05:40:37.706Z,9.89
2022-09-18T05:43:07.466Z,9.96
2022-09-18T05:45:37.261Z,9.95
2022-09-18T05:48:15.371Z,9.94
2022-09-18T05:50:43.524Z,10.00
2022-09-18T05:53:15.809Z,9.96
2022-09-18T05:56:06.432Z,9.98
2022-09-18T05:58:33.832Z,10.05
2022-09-18T06:01:04.767Z,10.04
2022-09-18T06:03:59.758Z,10.05
2022-09-18T06:06:38.523Z,10.07
2022-09-18T06:09:06.798Z,10.02
2022-09-18T06:11:34.171Z,10.06
2022-09-18T06:14:01.812Z,10.05
2022-09-18T06:16:29.645Z,10.02
2022-09-18T06:19:00.644Z,10.07
2022-09-18T06:21:28.179Z,10.11
2022-09-18T06:23:57.446Z,10.07
2022-09-18T06:26:33.461Z,10.07
2022-09-18T06:29:01.447Z,10.10
2022-09-18T06:31:34.191Z,10.13
2022-09-18T06:34:11.262Z,10.20
2022-09-18T06:36:43.002Z,10.23
2022-09-18T06:39:23.551Z,10.22
2022-09-18T06:41:55.571Z,10.26
2022-09-18T06:44:45.998Z,10.18
2022-09-18T06:47:15.998Z,10.25
2022-09-18T06:49:46.613Z,10.23
2022-09-18T06:52:14.103Z,10.23
2022-09-18T06:54:41.516Z,10.22
2022-09-18T06:57:09.234Z,10.27
2022-09-18T06:59:38.491Z,10.26
2022-09-18T07:02:16.050Z,10.32
2022-09-18T07:04:55.644Z,10.32
2022-09-18T07:07:23.223Z,10.31
2022-09-18T07:09:52.161Z,10.28
2022-09-18T07:12:25.201Z,10.27
2022-09-18T07:14:54.668Z,10.23
2022-09-18T07:17:26.236Z,10.27
2022-09-18T07:19:56.351Z,10.26
2022-09-18T07:22:31.980Z,10.26
2022-09-18T07:24:59.878Z,10.21
2022-09-18T07:27:29.163Z,10.27
2022-09-18T07:29:57.303Z,10.24
2022-09-18T07:32:26.478Z,10.28
2022-09-18T07:34:55.156Z,10.28
2022-09-18T07:37:27.538Z,10.20
2022-09-18T07:40:12.463Z,10.20
2022-09-18T07:43:07.756Z,10.09
2022-09-18T07:45:37.791Z,10.13
2022-09-18T07:48:06.846Z,10.15
2022-09-18T07:50:40.099Z,10.12
2022-09-18T07:53:09.313Z,10.16
2022-09-18T07:55:39.258Z,10.20
2022-09-18T07:58:07.661Z,10.20
2022-09-18T08:00:53.994Z,10.18
2022-09-18T08:03:25.768Z,10.24
2022-09-18T08:06:20.570Z,10.26
2022-09-18T08:09:11.335Z,10.24
2022-09-18T08:11:59.256Z,10.26
2022-09-18T08:14:51.262Z,10.27
2022-09-18T08:17:22.445Z,10.31
2022-09-18T08:20:10.002Z,10.30
2022-09-18T08:23:05.802Z,10.30
2022-09-18T08:25:37.711Z,10.40
2022-09-18T08:28:06.781Z,10.48
2022-09-18T08:30:45.392Z,10.51
2022-09-18T08:33:14.590Z,10.59
2022-09-18T08:35:42.159Z,10.58
2022-09-18T08:38:21.947Z,10.65
2022-09-18T08:41:30.124Z,10.78
2022-09-18T08:44:01.484Z,10.93
2022-09-18T08:46:45.461Z,11.07
2022-09-18T08:49:16.258Z,11.26
2022-09-18T08:51:49.999Z,11.43
2022-09-18T08:54:39.692Z,11.48
2022-09-18T08:57:48.806Z,11.55
2022-09-18T09:00:47.029Z,11.65
2022-09-18T09:03:49.743Z,11.64
2022-09-18T09:06:34.096Z,11.55
2022-09-18T09:09:02.222Z,11.48
2022-09-18T09:11:57.735Z,11.49
2022-09-18T09:14:57.925Z,11.53
2022-09-18T09:17:47.028Z,11.46
2022-09-18T09:20:35.911Z,11.48
2022-09-18T09:23:12.320Z,11.65
2022-09-18T09:26:06.990Z,11.88
2022-09-18T09:29:14.622Z,12.13
2022-09-18T09:31:56.551Z,12.49
2022-09-18T09:34:51.704Z,12.65
2022-09-18T09:37:41.103Z,13.02
2022-09-18T09:40:25.911Z,13.26
2022-09-18T09:42:57.689Z,13.39
2022-09-18T09:45:31.624Z,13.31
2022-09-18T09:48:04.038Z,13.12
2022-09-18T09:50:36.332Z,13.16
2022-09-18T09:53:08.122Z,13.12
2022-09-18T09:55:49.449Z,13.21
2022-09-18T09:58:39.266Z,13.23
2022-09-18T10:01:13.526Z,13.39
2022-09-18T10:03:55.270Z,13.53
2022-09-18T10:06:49.458Z,13.74
2022-09-18T10:09:49.024Z,14.02
2022-09-18T10:12:31.431Z,14.08
2022-09-18T10:15:23.778Z,14.24
2022-09-18T10:17:53.178Z,14.20
2022-09-18T10:20:27.636Z,14.27
2022-09-18T10:23:02.316Z,14.36
2022-09-18T10:25:39.962Z,14.52
2022-09-18T10:28:13.189Z,14.35
2022-09-18T10:31:03.926Z,14.40
2022-09-18T10:33:38.279Z,14.32
2022-09-18T10:36:16.341Z,14.18
2022-09-18T10:38:44.175Z,14.14
2022-09-18T10:41:45.128Z,14.05
2022-09-18T10:44:37.807Z,14.06
2022-09-18T10:47:32.797Z,14.06
2022-09-18T10:50:11.489Z,14.00
2022-09-18T10:52:46.739Z,13.73
2022-09-18T10:55:27.317Z,13.63
2022-09-18T10:57:59.726Z,13.61
2022-09-18T11:00:34.123Z,13.63
2022-09-18T11:03:05.498Z,13.62
2022-09-18T11:05:38.021Z,13.53
2022-09-18T11:08:15.480Z,13.51
2022-09-18T11:10:51.031Z,13.63
2022-09-18T11:13:24.271Z,13.61
2022-09-18T11:15:57.794Z,13.48
2022-09-18T11:18:26.336Z,13.38
2022-09-18T11:20:56.718Z,13.34
2022-09-18T11:23:26.734Z,13.34
2022-09-18T11:26:21.435Z,13.29
2022-09-18T11:29:02.624Z,13.39
2022-09-18T11:31:48.288Z,13.44
2022-09-18T11:34:30.549Z,13.51
2022-09-18T11:37:06.043Z,13.72
2022-09-18T11:39:51.969Z,13.60
2022-09-18T11:42:21.335Z,13.74
2022-09-18T11:44:52.409Z,13.95
2022-09-18T11:47:46.779Z,13.97
2022-09-18T11:50:14.395Z,14.05
2022-09-18T11:52:45.615Z,14.08
2022-09-18T11:55:44.466Z,14.18
2022-09-18T11:58:29.177Z,14.27
2022-09-18T12:01:23.077Z,14.44
2022-09-18T12:04:32.978Z,14.59
2022-09-18T12:07:36.932Z,14.47
2022-09-18T12:10:07.329Z,14.32
2022-09-18T12:12:39.972Z,14.42
2022-09-18T12:15:34.396Z,14.21
2022-09-18T12:18:25.784Z,14.03
2022-09-18T12:21:02.321Z,13.98
2022-09-18T12:23:32.348Z,14.02
2022-09-18T12:26:46.907Z,14.17
2022-09-18T12:29:39.263Z,14.21
2022-09-18T12:32:21.816Z,14.16
2022-09-18T12:35:27.206Z,14.19
2022-09-18T12:38:19.569Z,14.10
2022-09-18T12:40:50.505Z,13.91
2022-09-18T12:43:30.725Z,14.04
2022-09-18T12:46:10.087Z,14.02
2022-09-18T12:48:51.377Z,14.03
2022-09-18T12:51:19.006Z,13.89
2022-09-18T12:53:56.856Z,13.85
2022-09-18T12:56:49.493Z,13.83
2022-09-18T12:59:32.807Z,13.64
2022-09-18T13:02:14.102Z,13.73
2022-09-18T13:04:46.866Z,13.75
2022-09-18T13:07:35.584Z,13.82
2022-09-18T13:10:26.326Z,13.80
2022-09-18T13:13:00.482Z,13.81
2022-09-18T13:15:28.002Z,13.91
2022-09-18T13:18:33.318Z,13.92
2022-09-18T13:21:06.508Z,13.84
2022-09-18T13:23:39.553Z,13.72
2022-09-18T13:26:09.951Z,13.72
2022-09-18T13:28:41.029Z,13.76
2022-09-18T13:31:30.751Z,13.69
2022-09-18T13:34:01.281Z,13.69
2022-09-18T13:36:36.594Z,13.61
2022-09-18T13:39:08.018Z,13.46
2022-09-18T13:42:02.096Z,13.19
2022-09-18T13:44:35.409Z,13.17
2022-09-18T13:47:15.810Z,13.15
2022-09-18T13:49:48.071Z,12.92
2022-09-18T13:52:35.810Z,12.67
2022-09-18T13:55:16.466Z,12.58
2022-09-18T13:57:44.720Z,12.54
2022-09-18T14:00:25.339Z,12.49
2022-09-18T14:03:14.453Z,12.50
2022-09-18T14:05:43.131Z,12.45
2022-09-18T14:08:24.584Z,12.43
2022-09-18T14:11:14.669Z,12.51
2022-09-18T14:14:05.842Z,12.53
2022-09-18T14:16:38.984Z,12.41
2022-09-18T14:19:20.580Z,12.33
2022-09-18T14:21:48.556Z,12.32
2022-09-18T14:24:25.517Z,12.32
2022-09-18T14:26:59.262Z,12.37
2022-09-18T14:29:29.778Z,12.26
2022-09-18T14:31:59.574Z,12.06
2022-09-18T14:34:34.832Z,12.01
2022-09-18T14:37:21.019Z,11.91
2022-09-18T14:39:48.874Z,11.91
2022-09-18T14:42:35.606Z,11.92
2022-09-18T14:45:08.829Z,11.87
2022-09-18T14:47:36.879Z,11.82
2022-09-18T14:50:37.967Z,11.83
2022-09-18T14:53:26.089Z,11.80
2022-09-18T14:56:06.185Z,11.77
2022-09-18T14:58:37.153Z,11.76
2022-09-18T15:01:07.417Z,11.74
2022-09-18T15:03:42.702Z,11.76
2022-09-18T15:06:18.536Z,11.72
2022-09-18T15:08:48.248Z,11.76
2022-09-18T15:11:17.243Z,11.76
2022-09-18T15:13:46.529Z,11.78
2022-09-18T15:16:25.518Z,11.72
2022-09-18T15:18:53.435Z,11.73
2022-09-18T15:21:41.891Z,11.71
2022-09-18T15:24:15.652Z,11.77
2022-09-18T15:26:45.572Z,11.76
2022-09-18T15:29:39.044Z,11.70
2022-09-18T15:32:07.199Z,11.70
2022-09-18T15:34:41.468Z,11.66
2022-09-18T15:37:17.792Z,11.59
2022-09-18T15:39:47.676Z,11.68
2022-09-18T15:42:34.099Z,11.61
2022-09-18T15:45:01.762Z,11.70
2022-09-18T15:47:31.958Z,11.68
2022-09-18T15:50:00.421Z,11.64
2022-09-18T15:53:02.642Z,11.68
2022-09-18T15:55:46.511Z,11.65
2022-09-18T15:58:35.766Z,11.55
2022-09-18T16:01:06.169Z,11.63
2022-09-18T16:03:34.579Z,11.61
2022-09-18T16:06:05.251Z,11.61
2022-09-18T16:08:36.098Z,11.61
2022-09-18T16:11:05.239Z,11.65
2022-09-18T16:13:37.891Z,11.49
2022-09-18T16:16:08.890Z,11.61
2022-09-18T16:18:52.595Z,11.63
2022-09-18T16:21:20.351Z,11.65
2022-09-18T16:23:50.470Z,11.66
2022-09-18T16:26:33.634Z,11.70
2022-09-18T16:29:01.614Z,11.67
2022-09-18T16:31:35.129Z,11.62
2022-09-18T16:34:05.892Z,11.60
2022-09-18T16:36:35.465Z,11.55
2022-09-18T16:39:08.690Z,11.57
2022-09-18T16:41:37.138Z,11.58
2022-09-18T16:44:05.633Z,11.57
2022-09-18T16:46:40.778Z,11.54
2022-09-18T16:49:12.995Z,11.54
2022-09-18T16:51:40.526Z,11.55
2022-09-18T16:54:08.122Z,11.57
2022-09-18T16:56:39.385Z,11.60
2022-09-18T16:59:07.243Z,11.61
2022-09-18T17:01:54.309Z,11.58
2022-09-18T17:04:25.076Z,11.57
2022-09-18T17:06:54.720Z,11.54
2022-09-18T17:09:24.036Z,11.55
2022-09-18T17:11:52.664Z,11.57
2022-09-18T17:14:20.518Z,11.45
2022-09-18T17:16:48.242Z,11.51
2022-09-18T17:19:16.331Z,11.48
2022-09-18T17:21:44.296Z,11.49
2022-09-18T17:24:12.133Z,11.50
2022-09-18T17:26:41.756Z,11.50
2022-09-18T17:29:11.718Z,11.51
2022-09-18T17:31:39.934Z,11.50
2022-09-18T17:34:07.848Z,11.47
2022-09-18T17:36:40.320Z,11.52
2022-09-18T17:39:08.090Z,11.52
2022-09-18T17:41:35.777Z,11.46
2022-09-18T17:44:03.432Z,11.47
2022-09-18T17:46:31.232Z,11.46
2022-09-18T17:48:59.863Z,11.44
2022-09-18T17:51:28.876Z,11.40
2022-09-18T17:53:59.886Z,11.36
2022-09-18T17:56:30.200Z,11.29
2022-09-18T17:59:02.091Z,11.23
2022-09-18T18:01:30.440Z,11.24
2022-09-18T18:03:58.417Z,11.28
2022-09-18T18:06:26.742Z,11.17
2022-09-18T18:08:54.669Z,11.00
2022-09-18T18:11:23.569Z,10.86
2022-09-18T18:13:52.820Z,10.71
2022-09-18T18:16:23.607Z,10.56
2022-09-18T18:18:55.376Z,10.41
2022-09-18T18:21:23.602Z,10.38
2022-09-18T18:23:57.752Z,10.39
2022-09-18T18:26:28.178Z,10.31
2022-09-18T18:28:55.797Z,10.28
2022-09-18T18:31:25.740Z,10.25
2022-09-18T18:33:55.298Z,10.19
2022-09-18T18:36:27.997Z,10.17
2022-09-18T18:38:58.847Z,10.23
2022-09-18T18:41:29.267Z,10.23
2022-09-18T18:43:59.229Z,10.20
2022-09-18T18:46:28.692Z,10.18
2022-09-18T18:49:00.603Z,10.19
2022-09-18T18:51:29.819Z,10.17
2022-09-18T18:53:57.766Z,10.12
2022-09-18T18:56:25.788Z,10.18
2022-09-18T18:58:57.782Z,10.28
2022-09-18T19:01:25.965Z,10.22
2022-09-18T19:03:58.734Z,10.25
2022-09-18T19:06:27.166Z,10.19
2022-09-18T19:09:00.978Z,10.23
2022-09-18T19:11:30.477Z,10.12
2022-09-18T19:14:00.083Z,10.09
2022-09-18T19:16:29.100Z,10.15
2022-09-18T19:19:01.276Z,10.12
2022-09-18T19:21:29.583Z,10.06
2022-09-18T19:24:02.486Z,10.11
2022-09-18T19:26:30.721Z,10.09
2022-09-18T19:29:00.420Z,10.10
2022-09-18T19:31:29.572Z,10.05
2022-09-18T19:33:58.180Z,10.13
2022-09-18T19:36:28.705Z,10.12
2022-09-18T19:39:06.910Z,10.00
2022-09-18T19:41:53.433Z,10.01
2022-09-18T19:44:40.728Z,9.98
2022-09-18T19:47:19.945Z,9.95
2022-09-18T19:49:47.681Z,9.95
2022-09-18T19:52:21.074Z,9.87
2022-09-18T19:54:48.976Z,9.89
2022-09-18T19:57:17.607Z,9.85
2022-09-18T19:59:45.067Z,9.84
2022-09-18T20:02:14.556Z,9.79
2022-09-18T20:04:42.304Z,9.78
2022-09-18T20:07:10.260Z,9.77
2022-09-18T20:09:37.721Z,9.77
2022-09-18T20:12:05.607Z,9.81
2022-09-18T20:14:33.288Z,9.74
2022-09-18T20:17:00.761Z,9.77
2022-09-18T20:19:28.427Z,9.75
2022-09-18T20:21:56.342Z,9.79
2022-09-18T20:24:23.898Z,9.83
2022-09-18T20:26:51.884Z,9.79
2022-09-18T20:29:19.396Z,9.81
2022-09-18T20:31:47.237Z,9.82
2022-09-18T20:34:15.126Z,9.76
2022-09-18T20:36:42.786Z,9.73
2022-09-18T20:39:10.360Z,9.69
2022-09-18T20:41:39.376Z,9.70
2022-09-18T20:44:06.794Z,9.64
2022-09-18T20:46:37.229Z,9.70
2022-09-18T20:49:08.299Z,9.69
2022-09-18T20:51:36.399Z,9.70
2022-09-18T20:54:07.802Z,9.65
2022-09-18T20:56:42.123Z,9.65
2022-09-18T20:59:14.583Z,9.61
2022-09-18T21:01:43.746Z,9.54
2022-09-18T21:04:20.136Z,9.57
2022-09-18T21:06:56.602Z,9.53
2022-09-18T21:09:26.565Z,9.57
2022-09-18T21:11:55.102Z,9.54
2022-09-18T21:14:24.379Z,9.55
2022-09-18T21:16:51.840Z,9.52
2022-09-18T21:19:20.260Z,9.53
2022-09-18T21:21:48.741Z,9.50
2022-09-18T21:24:17.609Z,9.50
2022-09-18T21:26:47.994Z,9.48
2022-09-18T21:29:20.800Z,9.57
2022-09-18T21:31:50.730Z,9.53
2022-09-18T21:34:23.619Z,9.52
2022-09-18T21:36:57.861Z,9.59
2022-09-18T21:39:28.348Z,9.55
2022-09-18T21:41:57.593Z,9.56
2022-09-18T21:44:30.087Z,9.56
2022-09-18T21:47:00.270Z,9.61
2022-09-18T21:49:29.208Z,9.61
2022-09-18T21:51:59.704Z,9.62
2022-09-18T21:54:28.195Z,9.60
2022-09-18T21:56:56.709Z,9.60
2022-09-18T21:59:30.465Z,9.64
2022-09-18T22:01:59.066Z,9.60
2022-09-18T22:04:32.586Z,9.61
2022-09-18T22:07:02.023Z,9.62
2022-09-18T22:09:36.720Z,9.70
2022-09-18T22:12:06.272Z,9.70
2022-09-18T22:14:35.437Z,9.70
2022-09-18T22:17:06.519Z,9.69
2022-09-18T22:19:38.073Z,9.65
2022-09-18T22:22:08.169Z,9.65
2022-09-18T22:24:35.784Z,9.73
2022-09-18T22:27:10.433Z,9.73
2022-09-18T22:29:39.677Z,9.73
2022-09-18T22:32:07.630Z,9.67
2022-09-18T22:34:35.172Z,9.62
2022-09-18T22:37:03.133Z,9.63
2022-09-18T22:39:31.064Z,9.68
2022-09-18T22:41:58.847Z,9.67
2022-09-18T22:44:26.787Z,9.67
2022-09-18T22:46:54.227Z,9.65
2022-09-18T22:49:22.985Z,9.64
2022-09-18T22:51:51.552Z,9.67
2022-09-18T22:54:26.586Z,9.62
2022-09-18T22:56:55.287Z,9.62
2022-09-18T22:59:24.879Z,9.59
2022-09-18T23:02:01.585Z,9.59
2022-09-18T23:04:31.219Z,9.53
2022-09-18T23:06:59.481Z,9.55
2022-09-18T23:09:27.636Z,9.44
2022-09-18T23:11:55.836Z,9.51
2022-09-18T23:14:27.808Z,9.46
2022-09-18T23:16:56.325Z,9.52
2022-09-18T23:19:34.072Z,9.53
2022-09-18T23:22:01.804Z,9.51
2022-09-18T23:24:29.666Z,9.48
2022-09-18T23:26:58.179Z,9.51
2022-09-18T23:29:27.518Z,9.52
2022-09-18T23:31:57.678Z,9.52
2022-09-18T23:34:29.370Z,9.47
2022-09-18T23:36:58.357Z,9.49
2022-09-18T23:39:32.573Z,9.47
2022-09-18T23:42:02.284Z,9.55
2022-09-18T23:44:31.359Z,9.56
2022-09-18T23:47:00.261Z,9.53
2022-09-18T23:49:29.261Z,9.55
2022-09-18T23:51:57.160Z,9.53
2022-09-18T23:54:26.799Z,9.56
2022-09-18T23:56:54.989Z,9.60
2022-09-18T23:59:23.841Z,9.58
